sensor_id;sensor_type;location;lat;lon;timestamp;pressure;altitude;pressure_sealevel;temperature;humidity
44131;BME280;29792;48.726;9.248;2023-04-05T00:00:15;97402.16;;;2.05;60.64
44131;BME280;29792;48.726;9.248;2023-04-05T00:02:40;97412.31;;;2.04;60.81
44131;BME280;29792;48.726;9.248;2023-04-05T00:05:06;97404.00;;;2.02;60.64
44131;BME280;29792;48.726;9.248;2023-04-05T00:07:32;97400.66;;;2.01;60.54
44131;BME280;29792;48.726;9.248;2023-04-05T00:09:59;97402.28;;;2.02;60.52
44131;BME280;29792;48.726;9.248;2023-04-05T00:12:24;97405.69;;;2.01;61.03
44131;BME280;29792;48.726;9.248;2023-04-05T00:14:49;97404.88;;;2.01;60.70
44131;BME280;29792;48.726;9.248;2023-04-05T00:17:15;97403.19;;;2.01;61.16
44131;BME280;29792;48.726;9.248;2023-04-05T00:19:42;97398.94;;;2.02;60.64
44131;BME280;29792;48.726;9.248;2023-04-05T00:22:09;97396.41;;;2.02;61.09
44131;BME280;29792;48.726;9.248;2023-04-05T00:24:34;97384.63;;;2.02;61.29
44131;BME280;29792;48.726;9.248;2023-04-05T00:27:03;97386.22;;;2.03;61.54
44131;BME280;29792;48.726;9.248;2023-04-05T00:29:28;97378.78;;;2.00;61.86
44131;BME280;29792;48.726;9.248;2023-04-05T00:31:53;97373.75;;;2.00;61.06
44131;BME280;29792;48.726;9.248;2023-04-05T00:34:18;97377.97;;;2.00;61.35
44131;BME280;29792;48.726;9.248;2023-04-05T00:36:44;97372.09;;;1.99;62.04
44131;BME280;29792;48.726;9.248;2023-04-05T00:39:09;97369.56;;;1.99;62.02
44131;BME280;29792;48.726;9.248;2023-04-05T00:41:34;97371.28;;;1.99;61.98
44131;BME280;29792;48.726;9.248;2023-04-05T00:44:00;97365.50;;;1.95;61.59
44131;BME280;29792;48.726;9.248;2023-04-05T00:46:27;97368.22;;;1.90;61.44
44131;BME280;29792;48.726;9.248;2023-04-05T00:48:53;97372.81;;;1.81;62.06
44131;BME280;29792;48.726;9.248;2023-04-05T00:51:19;97365.50;;;1.75;61.98
44131;BME280;29792;48.726;9.248;2023-04-05T00:53:45;97362.34;;;1.70;61.70
44131;BME280;29792;48.726;9.248;2023-04-05T00:56:12;97360.69;;;1.69;61.46
44131;BME280;29792;48.726;9.248;2023-04-05T00:58:38;97360.81;;;1.66;61.73
44131;BME280;29792;48.726;9.248;2023-04-05T01:01:19;97362.56;;;1.64;61.73
44131;BME280;29792;48.726;9.248;2023-04-05T01:03:50;97356.00;;;1.60;61.91
44131;BME280;29792;48.726;9.248;2023-04-05T01:06:32;97356.25;;;1.53;62.13
44131;BME280;29792;48.726;9.248;2023-04-05T01:09:23;97348.84;;;1.49;62.27
44131;BME280;29792;48.726;9.248;2023-04-05T01:11:53;97344.72;;;1.46;62.71
44131;BME280;29792;48.726;9.248;2023-04-05T01:14:21;97342.38;;;1.42;63.11
44131;BME280;29792;48.726;9.248;2023-04-05T01:16:46;97339.91;;;1.40;63.39
44131;BME280;29792;48.726;9.248;2023-04-05T01:19:14;97336.56;;;1.40;62.63
44131;BME280;29792;48.726;9.248;2023-04-05T01:21:45;97339.22;;;1.37;62.81
44131;BME280;29792;48.726;9.248;2023-04-05T01:27:07;97333.56;;;1.30;63.53
44131;BME280;29792;48.726;9.248;2023-04-05T01:29:50;97327.78;;;1.28;63.14
44131;BME280;29792;48.726;9.248;2023-04-05T01:32:23;97313.56;;;1.26;64.22
44131;BME280;29792;48.726;9.248;2023-04-05T01:35:00;97324.59;;;1.23;64.11
44131;BME280;29792;48.726;9.248;2023-04-05T01:37:31;97320.50;;;1.21;64.46
44131;BME280;29792;48.726;9.248;2023-04-05T01:39:59;97319.72;;;1.19;65.19
44131;BME280;29792;48.726;9.248;2023-04-05T01:42:25;97314.78;;;1.15;65.36
44131;BME280;29792;48.726;9.248;2023-04-05T01:44:51;97319.00;;;1.15;66.25
44131;BME280;29792;48.726;9.248;2023-04-05T01:47:16;97315.66;;;1.14;65.69
44131;BME280;29792;48.726;9.248;2023-04-05T01:49:42;97314.06;;;1.13;65.72
44131;BME280;29792;48.726;9.248;2023-04-05T01:52:07;97314.09;;;1.12;66.19
44131;BME280;29792;48.726;9.248;2023-04-05T01:54:32;97320.03;;;1.11;65.90
44131;BME280;29792;48.726;9.248;2023-04-05T01:56:58;97309.16;;;1.09;65.66
44131;BME280;29792;48.726;9.248;2023-04-05T01:59:23;97314.19;;;1.09;66.40
44131;BME280;29792;48.726;9.248;2023-04-05T02:01:49;97313.44;;;1.07;65.86
44131;BME280;29792;48.726;9.248;2023-04-05T02:04:14;97306.81;;;1.04;65.86
44131;BME280;29792;48.726;9.248;2023-04-05T02:06:40;97306.06;;;1.02;66.14
44131;BME280;29792;48.726;9.248;2023-04-05T02:09:05;97304.44;;;1.00;66.09
44131;BME280;29792;48.726;9.248;2023-04-05T02:11:30;97303.75;;;0.96;66.46
44131;BME280;29792;48.726;9.248;2023-04-05T02:13:55;97302.16;;;0.94;66.59
44131;BME280;29792;48.726;9.248;2023-04-05T02:16:21;97303.03;;;0.93;66.46
44131;BME280;29792;48.726;9.248;2023-04-05T02:18:46;97300.63;;;0.90;67.28
44131;BME280;29792;48.726;9.248;2023-04-05T02:21:15;97299.84;;;0.89;67.61
44131;BME280;29792;48.726;9.248;2023-04-05T02:23:41;97295.72;;;0.87;67.09
44131;BME280;29792;48.726;9.248;2023-04-05T02:26:06;97297.69;;;0.79;67.69
44131;BME280;29792;48.726;9.248;2023-04-05T02:28:32;97290.38;;;0.72;67.79
44131;BME280;29792;48.726;9.248;2023-04-05T02:30:57;97297.31;;;0.66;68.47
44131;BME280;29792;48.726;9.248;2023-04-05T02:33:22;97294.09;;;0.62;69.12
44131;BME280;29792;48.726;9.248;2023-04-05T02:35:49;97293.25;;;0.62;68.89
44131;BME280;29792;48.726;9.248;2023-04-05T02:38:15;97289.88;;;0.63;69.31
44131;BME280;29792;48.726;9.248;2023-04-05T02:40:40;97288.19;;;0.63;69.76
44131;BME280;29792;48.726;9.248;2023-04-05T02:43:06;97285.66;;;0.63;69.59
44131;BME280;29792;48.726;9.248;2023-04-05T02:45:32;97294.88;;;0.64;69.77
44131;BME280;29792;48.726;9.248;2023-04-05T02:47:57;97295.75;;;0.63;70.21
44131;BME280;29792;48.726;9.248;2023-04-05T02:50:22;97289.06;;;0.62;70.28
44131;BME280;29792;48.726;9.248;2023-04-05T02:52:51;97290.78;;;0.60;69.66
44131;BME280;29792;48.726;9.248;2023-04-05T02:55:16;97279.84;;;0.61;70.05
44131;BME280;29792;48.726;9.248;2023-04-05T02:57:42;97285.75;;;0.60;69.80
44131;BME280;29792;48.726;9.248;2023-04-05T03:00:08;97284.97;;;0.58;69.50
44131;BME280;29792;48.726;9.248;2023-04-05T03:02:35;97283.34;;;0.57;69.81
44131;BME280;29792;48.726;9.248;2023-04-05T03:05:02;97277.56;;;0.55;69.38
44131;BME280;29792;48.726;9.248;2023-04-05T03:07:27;97272.59;;;0.52;70.43
44131;BME280;29792;48.726;9.248;2023-04-05T03:09:53;97276.06;;;0.50;70.43
44131;BME280;29792;48.726;9.248;2023-04-05T03:12:18;97278.66;;;0.48;70.62
44131;BME280;29792;48.726;9.248;2023-04-05T03:14:44;97282.88;;;0.48;71.12
44131;BME280;29792;48.726;9.248;2023-04-05T03:17:10;97276.22;;;0.45;71.15
44131;BME280;29792;48.726;9.248;2023-04-05T03:19:36;97277.06;;;0.46;70.71
44131;BME280;29792;48.726;9.248;2023-04-05T03:22:01;97272.94;;;0.43;70.87
44131;BME280;29792;48.726;9.248;2023-04-05T03:24:26;97273.75;;;0.44;71.36
44131;BME280;29792;48.726;9.248;2023-04-05T03:26:52;97271.28;;;0.42;71.50
44131;BME280;29792;48.726;9.248;2023-04-05T03:29:17;97263.84;;;0.39;71.21
44131;BME280;29792;48.726;9.248;2023-04-05T03:31:43;97269.81;;;0.36;71.56
44131;BME280;29792;48.726;9.248;2023-04-05T03:34:08;97272.34;;;0.36;71.33
44131;BME280;29792;48.726;9.248;2023-04-05T03:36:34;97273.25;;;0.34;71.54
44131;BME280;29792;48.726;9.248;2023-04-05T03:39:11;97261.53;;;0.33;71.36
44131;BME280;29792;48.726;9.248;2023-04-05T03:41:40;97264.06;;;0.33;71.01
44131;BME280;29792;48.726;9.248;2023-04-05T03:44:06;97267.53;;;0.30;71.42
44131;BME280;29792;48.726;9.248;2023-04-05T03:46:32;97266.78;;;0.27;71.47
44131;BME280;29792;48.726;9.248;2023-04-05T03:48:59;97269.44;;;0.24;71.40
44131;BME280;29792;48.726;9.248;2023-04-05T03:51:24;97274.53;;;0.22;72.10
44131;BME280;29792;48.726;9.248;2023-04-05T03:53:51;97263.69;;;0.20;71.51
44131;BME280;29792;48.726;9.248;2023-04-05T03:56:16;97263.78;;;0.17;71.71
44131;BME280;29792;48.726;9.248;2023-04-05T03:58:42;97263.03;;;0.15;71.55
44131;BME280;29792;48.726;9.248;2023-04-05T04:01:07;97272.38;;;0.12;70.97
44131;BME280;29792;48.726;9.248;2023-04-05T04:03:32;97263.28;;;0.08;71.63
44131;BME280;29792;48.726;9.248;2023-04-05T04:05:58;97263.34;;;0.06;71.86
44131;BME280;29792;48.726;9.248;2023-04-05T04:08:24;97260.91;;;0.03;71.82
44131;BME280;29792;48.726;9.248;2023-04-05T04:10:50;97268.50;;;0.02;71.98
44131;BME280;29792;48.726;9.248;2023-04-05T04:13:15;97256.88;;;-0.01;72.08
44131;BME280;29792;48.726;9.248;2023-04-05T04:15:43;97260.25;;;-0.02;71.89
44131;BME280;29792;48.726;9.248;2023-04-05T04:18:08;97266.94;;;-0.01;72.16
44131;BME280;29792;48.726;9.248;2023-04-05T04:20:33;97261.97;;;-0.03;72.13
44131;BME280;29792;48.726;9.248;2023-04-05T04:22:59;97271.25;;;-0.05;72.24
44131;BME280;29792;48.726;9.248;2023-04-05T04:25:24;97273.75;;;-0.05;72.14
44131;BME280;29792;48.726;9.248;2023-04-05T04:27:54;97272.94;;;-0.05;72.48
44131;BME280;29792;48.726;9.248;2023-04-05T04:30:19;97277.16;;;-0.06;72.41
44131;BME280;29792;48.726;9.248;2023-04-05T04:32:47;97273.13;;;-0.10;72.66
44131;BME280;29792;48.726;9.248;2023-04-05T04:35:27;97279.00;;;-0.11;72.99
44131;BME280;29792;48.726;9.248;2023-04-05T04:38:03;97279.94;;;-0.13;73.59
44131;BME280;29792;48.726;9.248;2023-04-05T04:40:31;97272.41;;;-0.15;73.71
44131;BME280;29792;48.726;9.248;2023-04-05T04:43:05;97272.53;;;-0.18;73.87
44131;BME280;29792;48.726;9.248;2023-04-05T04:45:33;97273.41;;;-0.19;75.00
44131;BME280;29792;48.726;9.248;2023-04-05T04:48:02;97273.47;;;-0.20;74.63
44131;BME280;29792;48.726;9.248;2023-04-05T04:50:29;97274.31;;;-0.21;75.28
44131;BME280;29792;48.726;9.248;2023-04-05T04:52:55;97281.06;;;-0.22;75.72
44131;BME280;29792;48.726;9.248;2023-04-05T04:55:22;97273.50;;;-0.22;76.18
44131;BME280;29792;48.726;9.248;2023-04-05T04:57:51;97281.88;;;-0.21;76.27
44131;BME280;29792;48.726;9.248;2023-04-05T05:00:17;97276.97;;;-0.24;76.81
44131;BME280;29792;48.726;9.248;2023-04-05T05:02:43;97271.97;;;-0.26;76.29
44131;BME280;29792;48.726;9.248;2023-04-05T05:05:09;97276.22;;;-0.28;76.96
44131;BME280;29792;48.726;9.248;2023-04-05T05:07:35;97274.53;;;-0.27;76.61
44131;BME280;29792;48.726;9.248;2023-04-05T05:10:01;97280.44;;;-0.28;77.17
44131;BME280;29792;48.726;9.248;2023-04-05T05:12:26;97282.97;;;-0.28;76.85
44131;BME280;29792;48.726;9.248;2023-04-05T05:14:52;97274.63;;;-0.30;77.89
44131;BME280;29792;48.726;9.248;2023-04-05T05:17:17;97279.66;;;-0.30;77.49
44131;BME280;29792;48.726;9.248;2023-04-05T05:19:42;97283.94;;;-0.32;77.13
44131;BME280;29792;48.726;9.248;2023-04-05T05:22:08;97282.28;;;-0.33;77.60
44131;BME280;29792;48.726;9.248;2023-04-05T05:24:33;97287.31;;;-0.33;78.32
44131;BME280;29792;48.726;9.248;2023-04-05T05:26:58;97289.03;;;-0.34;78.30
44131;BME280;29792;48.726;9.248;2023-04-05T05:29:23;97283.13;;;-0.33;78.71
44131;BME280;29792;48.726;9.248;2023-04-05T05:31:49;97284.69;;;-0.30;78.83
44131;BME280;29792;48.726;9.248;2023-04-05T05:34:14;97288.03;;;-0.30;79.88
44131;BME280;29792;48.726;9.248;2023-04-05T05:36:41;97285.63;;;-0.33;79.88
44131;BME280;29792;48.726;9.248;2023-04-05T05:39:06;97281.31;;;-0.29;79.65
44131;BME280;29792;48.726;9.248;2023-04-05T05:41:32;97280.34;;;-0.25;80.63
44131;BME280;29792;48.726;9.248;2023-04-05T05:43:57;97281.88;;;-0.21;80.21
44131;BME280;29792;48.726;9.248;2023-04-05T05:46:23;97281.66;;;-0.15;79.94
44131;BME280;29792;48.726;9.248;2023-04-05T05:48:48;97284.81;;;-0.09;79.92
44131;BME280;29792;48.726;9.248;2023-04-05T05:51:13;97283.78;;;-0.03;79.74
44131;BME280;29792;48.726;9.248;2023-04-05T05:53:38;97276.06;;;0.02;80.04
44131;BME280;29792;48.726;9.248;2023-04-05T05:56:04;97278.53;;;0.03;79.79
44131;BME280;29792;48.726;9.248;2023-04-05T05:58:30;97286.81;;;0.07;80.72
44131;BME280;29792;48.726;9.248;2023-04-05T06:00:56;97285.00;;;0.10;80.49
44131;BME280;29792;48.726;9.248;2023-04-05T06:03:24;97277.34;;;0.13;81.33
44131;BME280;29792;48.726;9.248;2023-04-05T06:05:54;97282.19;;;0.19;81.44
44131;BME280;29792;48.726;9.248;2023-04-05T06:08:19;97288.69;;;0.25;81.94
44131;BME280;29792;48.726;9.248;2023-04-05T06:10:45;97281.69;;;0.33;82.08
44131;BME280;29792;48.726;9.248;2023-04-05T06:13:10;97280.66;;;0.38;82.95
44131;BME280;29792;48.726;9.248;2023-04-05T06:15:35;97281.22;;;0.47;82.65
44131;BME280;29792;48.726;9.248;2023-04-05T06:18:01;97288.56;;;0.53;83.61
44131;BME280;29792;48.726;9.248;2023-04-05T06:20:26;97290.03;;;0.58;83.08
44131;BME280;29792;48.726;9.248;2023-04-05T06:22:51;97289.06;;;0.62;82.50
44131;BME280;29792;48.726;9.248;2023-04-05T06:25:17;97295.59;;;0.66;82.32
44131;BME280;29792;48.726;9.248;2023-04-05T06:27:42;97293.84;;;0.68;82.01
44131;BME280;29792;48.726;9.248;2023-04-05T06:30:07;97292.13;;;0.70;82.66
44131;BME280;29792;48.726;9.248;2023-04-05T06:32:33;97286.94;;;0.73;82.19
44131;BME280;29792;48.726;9.248;2023-04-05T06:34:59;97295.22;;;0.77;82.37
44131;BME280;29792;48.726;9.248;2023-04-05T06:37:24;97295.03;;;0.82;82.59
44131;BME280;29792;48.726;9.248;2023-04-05T06:39:50;97296.59;;;0.86;82.57
44131;BME280;29792;48.726;9.248;2023-04-05T06:42:15;97299.00;;;0.89;81.87
44131;BME280;29792;48.726;9.248;2023-04-05T06:44:40;97297.06;;;0.95;81.78
44131;BME280;29792;48.726;9.248;2023-04-05T06:47:05;97297.66;;;1.02;82.16
44131;BME280;29792;48.726;9.248;2023-04-05T06:49:31;97298.16;;;1.11;82.20
44131;BME280;29792;48.726;9.248;2023-04-05T06:51:56;97294.50;;;1.19;82.17
44131;BME280;29792;48.726;9.248;2023-04-05T06:54:21;97290.81;;;1.27;82.17
44131;BME280;29792;48.726;9.248;2023-04-05T06:56:48;97292.97;;;1.36;82.07
44131;BME280;29792;48.726;9.248;2023-04-05T06:59:13;97293.44;;;1.46;82.65
44131;BME280;29792;48.726;9.248;2023-04-05T07:01:39;97295.53;;;1.57;82.18
44131;BME280;29792;48.726;9.248;2023-04-05T07:04:04;97299.38;;;1.65;81.76
44131;BME280;29792;48.726;9.248;2023-04-05T07:06:30;97299.06;;;1.73;81.16
44131;BME280;29792;48.726;9.248;2023-04-05T07:08:57;97306.13;;;1.86;81.02
44131;BME280;29792;48.726;9.248;2023-04-05T07:11:23;97307.31;;;1.98;80.73
44131;BME280;29792;48.726;9.248;2023-04-05T07:13:48;97299.97;;;2.12;80.29
44131;BME280;29792;48.726;9.248;2023-04-05T07:16:13;97307.72;;;2.28;80.53
44131;BME280;29792;48.726;9.248;2023-04-05T07:18:38;97305.19;;;2.48;79.18
44131;BME280;29792;48.726;9.248;2023-04-05T07:21:04;97300.06;;;2.68;78.43
44131;BME280;29792;48.726;9.248;2023-04-05T07:23:29;97301.72;;;2.88;77.51
44131;BME280;29792;48.726;9.248;2023-04-05T07:26:00;97304.38;;;3.04;76.87
44131;BME280;29792;48.726;9.248;2023-04-05T07:28:28;97300.03;;;3.25;76.89
44131;BME280;29792;48.726;9.248;2023-04-05T07:30:54;97299.34;;;3.40;74.71
44131;BME280;29792;48.726;9.248;2023-04-05T07:33:19;97298.69;;;3.54;74.84
44131;BME280;29792;48.726;9.248;2023-04-05T07:35:50;97294.53;;;3.70;74.01
44131;BME280;29792;48.726;9.248;2023-04-05T07:38:16;97289.47;;;3.87;73.18
44131;BME280;29792;48.726;9.248;2023-04-05T07:40:41;97298.78;;;4.04;71.50
44131;BME280;29792;48.726;9.248;2023-04-05T07:43:06;97288.63;;;4.21;70.88
44131;BME280;29792;48.726;9.248;2023-04-05T07:45:31;97290.88;;;4.43;69.94
44131;BME280;29792;48.726;9.248;2023-04-05T07:47:57;97296.56;;;4.64;68.75
44131;BME280;29792;48.726;9.248;2023-04-05T07:50:22;97302.00;;;5.05;69.45
44131;BME280;29792;48.726;9.248;2023-04-05T07:52:47;97294.75;;;6.34;68.55
44131;BME280;29792;48.726;9.248;2023-04-05T07:55:12;97285.78;;;7.65;64.58
44131;BME280;29792;48.726;9.248;2023-04-05T07:57:38;97287.81;;;8.63;60.43
44131;BME280;29792;48.726;9.248;2023-04-05T08:00:04;97293.28;;;9.32;56.68
44131;BME280;29792;48.726;9.248;2023-04-05T08:02:34;97297.25;;;9.60;54.49
44131;BME280;29792;48.726;9.248;2023-04-05T08:04:59;97295.22;;;9.52;52.84
44131;BME280;29792;48.726;9.248;2023-04-05T08:07:24;97303.63;;;9.17;51.67
44131;BME280;29792;48.726;9.248;2023-04-05T08:09:49;97302.63;;;8.84;51.15
44131;BME280;29792;48.726;9.248;2023-04-05T08:12:15;97299.28;;;8.58;51.09
44131;BME280;29792;48.726;9.248;2023-04-05T08:14:40;97302.22;;;8.39;51.50
44131;BME280;29792;48.726;9.248;2023-04-05T08:17:05;97300.19;;;8.31;51.13
44131;BME280;29792;48.726;9.248;2023-04-05T08:19:31;97298.84;;;8.38;51.69
44131;BME280;29792;48.726;9.248;2023-04-05T08:21:56;97293.41;;;9.17;51.99
44131;BME280;29792;48.726;9.248;2023-04-05T08:24:21;97284.47;;;10.52;50.36
44131;BME280;29792;48.726;9.248;2023-04-05T08:26:46;97289.66;;;11.92;48.39
44131;BME280;29792;48.726;9.248;2023-04-05T08:29:12;97285.91;;;13.48;45.94
44131;BME280;29792;48.726;9.248;2023-04-05T08:31:38;97283.22;;;14.64;41.91
44131;BME280;29792;48.726;9.248;2023-04-05T08:34:03;97289.50;;;14.88;40.10
44131;BME280;29792;48.726;9.248;2023-04-05T08:36:29;97288.84;;;14.77;39.68
44131;BME280;29792;48.726;9.248;2023-04-05T08:38:55;97288.28;;;14.36;37.97
44131;BME280;29792;48.726;9.248;2023-04-05T08:41:22;97298.25;;;13.93;38.04
44131;BME280;29792;48.726;9.248;2023-04-05T08:43:55;97298.78;;;13.58;38.71
44131;BME280;29792;48.726;9.248;2023-04-05T08:46:22;97300.50;;;13.28;38.20
44131;BME280;29792;48.726;9.248;2023-04-05T08:48:47;97296.69;;;13.13;37.86
44131;BME280;29792;48.726;9.248;2023-04-05T08:51:12;97294.72;;;13.06;38.22
44131;BME280;29792;48.726;9.248;2023-04-05T08:53:42;97298.88;;;12.87;38.05
44131;BME280;29792;48.726;9.248;2023-04-05T08:56:08;97304.38;;;12.83;37.98
44131;BME280;29792;48.726;9.248;2023-04-05T08:58:36;97294.75;;;12.75;38.20
44131;BME280;29792;48.726;9.248;2023-04-05T09:01:03;97296.78;;;12.72;37.91
44131;BME280;29792;48.726;9.248;2023-04-05T09:03:34;97299.13;;;12.54;38.54
44131;BME280;29792;48.726;9.248;2023-04-05T09:06:04;97297.00;;;12.38;38.58
44131;BME280;29792;48.726;9.248;2023-04-05T09:08:31;97296.19;;;12.38;39.98
44131;BME280;29792;48.726;9.248;2023-04-05T09:10:56;97298.31;;;12.33;38.10
44131;BME280;29792;48.726;9.248;2023-04-05T09:13:22;97298.09;;;12.15;37.66
44131;BME280;29792;48.726;9.248;2023-04-05T09:15:47;97298.53;;;11.99;38.07
44131;BME280;29792;48.726;9.248;2023-04-05T09:18:13;97305.66;;;11.96;38.32
44131;BME280;29792;48.726;9.248;2023-04-05T09:20:38;97296.00;;;11.88;37.68
44131;BME280;29792;48.726;9.248;2023-04-05T09:23:03;97300.50;;;11.75;39.38
44131;BME280;29792;48.726;9.248;2023-04-05T09:27:59;97297.22;;;11.73;38.77
44131;BME280;29792;48.726;9.248;2023-04-05T09:30:26;97300.50;;;11.75;39.23
44131;BME280;29792;48.726;9.248;2023-04-05T09:32:52;97293.13;;;11.70;39.79
44131;BME280;29792;48.726;9.248;2023-04-05T09:35:20;97298.66;;;11.55;38.40
44131;BME280;29792;48.726;9.248;2023-04-05T09:37:51;97291.00;;;11.43;39.50
44131;BME280;29792;48.726;9.248;2023-04-05T09:40:20;97291.47;;;11.37;39.29
44131;BME280;29792;48.726;9.248;2023-04-05T09:42:45;97292.31;;;11.38;40.43
44131;BME280;29792;48.726;9.248;2023-04-05T09:45:12;97292.78;;;11.43;39.95
44131;BME280;29792;48.726;9.248;2023-04-05T09:47:37;97280.19;;;11.40;38.87
44131;BME280;29792;48.726;9.248;2023-04-05T09:52:41;97289.03;;;11.36;39.13
44131;BME280;29792;48.726;9.248;2023-04-05T09:55:06;97293.84;;;11.29;40.37
44131;BME280;29792;48.726;9.248;2023-04-05T09:57:36;97284.28;;;11.31;41.50
44131;BME280;29792;48.726;9.248;2023-04-05T10:00:03;97284.28;;;11.31;41.91
44131;BME280;29792;48.726;9.248;2023-04-05T10:02:38;97280.41;;;11.37;41.00
44131;BME280;29792;48.726;9.248;2023-04-05T10:05:10;97284.47;;;11.51;40.21
44131;BME280;29792;48.726;9.248;2023-04-05T10:07:38;97283.97;;;11.57;40.19
44131;BME280;29792;48.726;9.248;2023-04-05T10:10:04;97281.84;;;11.62;39.60
44131;BME280;29792;48.726;9.248;2023-04-05T10:12:31;97288.25;;;11.67;38.56
44131;BME280;29792;48.726;9.248;2023-04-05T10:14:56;97271.91;;;11.68;38.03
44131;BME280;29792;48.726;9.248;2023-04-05T10:19:59;97269.50;;;12.08;38.89
44131;BME280;29792;48.726;9.248;2023-04-05T10:22:33;97262.56;;;12.50;39.71
44131;BME280;29792;48.726;9.248;2023-04-05T10:25:23;97262.28;;;13.14;37.89
44131;BME280;29792;48.726;9.248;2023-04-05T10:27:53;97264.50;;;13.57;37.33
44131;BME280;29792;48.726;9.248;2023-04-05T10:30:22;97257.78;;;14.32;36.01
44131;BME280;29792;48.726;9.248;2023-04-05T10:32:58;97252.50;;;15.43;34.25
44131;BME280;29792;48.726;9.248;2023-04-05T10:38:25;97255.69;;;17.68;31.37
44131;BME280;29792;48.726;9.248;2023-04-05T10:40:53;97255.69;;;18.08;30.59
44131;BME280;29792;48.726;9.248;2023-04-05T10:43:22;97251.16;;;17.86;30.51
44131;BME280;29792;48.726;9.248;2023-04-05T10:45:52;97260.13;;;17.17;30.78
44131;BME280;29792;48.726;9.248;2023-04-05T10:48:27;97263.34;;;17.19;32.07
44131;BME280;29792;48.726;9.248;2023-04-05T10:50:53;97253.03;;;18.41;31.40
44131;BME280;29792;48.726;9.248;2023-04-05T10:53:19;97252.09;;;19.96;29.50
44131;BME280;29792;48.726;9.248;2023-04-05T10:55:45;97239.00;;;20.86;27.21
44131;BME280;29792;48.726;9.248;2023-04-05T10:58:12;97246.22;;;21.77;26.56
44131;BME280;29792;48.726;9.248;2023-04-05T11:00:39;97242.47;;;23.04;26.07
44131;BME280;29792;48.726;9.248;2023-04-05T11:03:05;97243.53;;;24.23;23.65
44131;BME280;29792;48.726;9.248;2023-04-05T11:05:33;97236.09;;;25.04;22.88
44131;BME280;29792;48.726;9.248;2023-04-05T11:08:02;97238.81;;;26.17;22.80
44131;BME280;29792;48.726;9.248;2023-04-05T11:10:28;97236.91;;;27.04;21.13
44131;BME280;29792;48.726;9.248;2023-04-05T11:20:48;97228.09;;;27.58;18.75
44131;BME280;29792;48.726;9.248;2023-04-05T11:23:18;97225.75;;;27.38;20.49
44131;BME280;29792;48.726;9.248;2023-04-05T11:28:34;97211.00;;;28.14;18.69
44131;BME280;29792;48.726;9.248;2023-04-05T11:31:18;97209.63;;;27.99;18.95
44131;BME280;29792;48.726;9.248;2023-04-05T11:36:09;97204.88;;;29.23;18.09
44131;BME280;29792;48.726;9.248;2023-04-05T11:38:35;97209.31;;;29.06;18.37
44131;BME280;29792;48.726;9.248;2023-04-05T11:41:18;97204.00;;;28.54;18.03
44131;BME280;29792;48.726;9.248;2023-04-05T11:43:49;97204.03;;;28.42;18.46
44131;BME280;29792;48.726;9.248;2023-04-05T11:46:16;97201.38;;;28.77;17.91
44131;BME280;29792;48.726;9.248;2023-04-05T11:48:48;97192.38;;;28.90;17.01
44131;BME280;29792;48.726;9.248;2023-04-05T11:51:13;97195.16;;;29.12;17.63
44131;BME280;29792;48.726;9.248;2023-04-05T11:53:45;97198.06;;;29.27;17.09
44131;BME280;29792;48.726;9.248;2023-04-05T11:56:10;97188.69;;;28.39;16.32
44131;BME280;29792;48.726;9.248;2023-04-05T11:58:38;97189.44;;;26.80;17.01
44131;BME280;29792;48.726;9.248;2023-04-05T12:01:05;97191.75;;;24.83;17.72
44131;BME280;29792;48.726;9.248;2023-04-05T12:03:34;97189.41;;;23.04;19.48
44131;BME280;29792;48.726;9.248;2023-04-05T12:06:05;97189.31;;;21.38;21.19
44131;BME280;29792;48.726;9.248;2023-04-05T12:11:06;97185.91;;;19.16;23.21
44131;BME280;29792;48.726;9.248;2023-04-05T12:13:32;97191.47;;;18.26;24.47
44131;BME280;29792;48.726;9.248;2023-04-05T12:16:00;97190.59;;;17.63;27.20
44131;BME280;29792;48.726;9.248;2023-04-05T12:18:26;97178.06;;;17.17;27.45
44131;BME280;29792;48.726;9.248;2023-04-05T12:20:53;97174.88;;;16.73;28.61
44131;BME280;29792;48.726;9.248;2023-04-05T12:23:18;97168.72;;;16.32;28.03
44131;BME280;29792;48.726;9.248;2023-04-05T12:25:46;97167.00;;;15.89;28.61
44131;BME280;29792;48.726;9.248;2023-04-05T12:28:12;97165.19;;;15.56;29.38
44131;BME280;29792;48.726;9.248;2023-04-05T12:30:51;97167.38;;;15.33;30.49
44131;BME280;29792;48.726;9.248;2023-04-05T12:33:39;97170.94;;;15.14;32.64
44131;BME280;29792;48.726;9.248;2023-04-05T12:36:06;97163.19;;;14.97;32.60
44131;BME280;29792;48.726;9.248;2023-04-05T12:38:32;97166.00;;;14.76;32.58
44131;BME280;29792;48.726;9.248;2023-04-05T12:41:01;97161.34;;;14.62;31.97
44131;BME280;29792;48.726;9.248;2023-04-05T12:43:40;97166.41;;;14.54;31.96
44131;BME280;29792;48.726;9.248;2023-04-05T12:46:10;97159.09;;;14.76;33.44
44131;BME280;29792;48.726;9.248;2023-04-05T12:48:36;97146.91;;;15.32;31.52
44131;BME280;29792;48.726;9.248;2023-04-05T12:51:13;97154.16;;;16.65;30.21
44131;BME280;29792;48.726;9.248;2023-04-05T12:53:44;97146.97;;;18.07;28.01
44131;BME280;29792;48.726;9.248;2023-04-05T12:56:09;97138.13;;;19.48;26.01
44131;BME280;29792;48.726;9.248;2023-04-05T12:58:35;97134.38;;;20.46;24.49
44131;BME280;29792;48.726;9.248;2023-04-05T13:01:01;97139.09;;;21.51;24.81
44131;BME280;29792;48.726;9.248;2023-04-05T13:03:27;97133.34;;;22.59;23.66
44131;BME280;29792;48.726;9.248;2023-04-05T13:05:52;97136.81;;;23.59;22.66
44131;BME280;29792;48.726;9.248;2023-04-05T13:08:18;97137.31;;;24.34;21.02
44131;BME280;29792;48.726;9.248;2023-04-05T13:10:44;97127.78;;;25.04;20.51
44131;BME280;29792;48.726;9.248;2023-04-05T13:13:10;97133.13;;;25.72;20.49
44131;BME280;29792;48.726;9.248;2023-04-05T13:15:36;97124.75;;;26.25;19.83
44131;BME280;29792;48.726;9.248;2023-04-05T13:18:01;97114.94;;;26.68;19.66
44131;BME280;29792;48.726;9.248;2023-04-05T13:20:26;97118.25;;;27.12;19.90
44131;BME280;29792;48.726;9.248;2023-04-05T13:22:51;97119.28;;;27.76;18.78
44131;BME280;29792;48.726;9.248;2023-04-05T13:25:17;97121.78;;;27.94;18.57
44131;BME280;29792;48.726;9.248;2023-04-05T13:27:42;97111.34;;;28.22;18.82
44131;BME280;29792;48.726;9.248;2023-04-05T13:30:08;97104.47;;;28.33;17.76
44131;BME280;29792;48.726;9.248;2023-04-05T13:32:34;97108.94;;;28.09;17.92